Time;durP1;ratioP1;P1;durP2;ratioP2;P2;SDS_P1;SDS_P2;PMS_P1;PMS_P2;Temp;Humidity;BMP_temperature;BMP_pressure;BME280_temperature;BME280_humidity;BME280_pressure;Samples;Min_cycle;Max_cycle;Signal;HPM_P1;HPM_P2
2022/06/13 00:01:52;;;;;;;5.50;2.10;;;;;;;;;;4996918;28;20069;-67
2022/06/13 00:04:18;;;;;;;4.35;1.50;;;;;;;;;;4996855;28;20548;-67
2022/06/13 00:06:46;;;;;;;5.45;2.00;;;;;;;;;;4996736;28;20452;-67
2022/06/13 00:09:12;;;;;;;5.50;1.80;;;;;;;;;;4996665;28;20033;-67
2022/06/13 00:11:37;;;;;;;7.28;2.00;;;;;;;;;;4996852;28;20101;-69
2022/06/13 00:14:04;;;;;;;7.15;2.15;;;;;;;;;;4996415;28;20072;-68
2022/06/13 00:16:29;;;;;;;7.35;2.30;;;;;;;;;;4996256;28;20095;-67
2022/06/13 00:18:55;;;;;;;7.72;2.00;;;;;;;;;;4996449;28;20084;-67
2022/06/13 00:21:25;;;;;;;4.82;1.60;;;;;;;;;;4996523;28;20035;-67
2022/06/13 00:23:51;;;;;;;8.13;2.40;;;;;;;;;;4996530;28;20061;-68
2022/06/13 00:26:18;;;;;;;7.00;2.33;;;;;;;;;;4996359;28;20022;-66
2022/06/13 00:28:44;;;;;;;5.00;1.85;;;;;;;;;;4996221;28;20030;-66
2022/06/13 00:31:09;;;;;;;9.13;2.05;;;;;;;;;;4996524;28;20031;-69
2022/06/13 00:33:35;;;;;;;5.32;2.22;;;;;;;;;;4996480;28;20062;-67
2022/06/13 00:36:01;;;;;;;4.90;1.80;;;;;;;;;;4996270;28;20077;-67
2022/06/13 00:38:26;;;;;;;8.98;1.77;;;;;;;;;;4996355;28;20022;-68
2022/06/13 00:40:52;;;;;;;7.45;1.88;;;;;;;;;;4995932;28;20050;-66
2022/06/13 00:43:17;;;;;;;9.45;2.30;;;;;;;;;;4996150;28;20022;-67
2022/06/13 00:45:43;;;;;;;6.72;1.88;;;;;;;;;;4996112;28;20022;-69
2022/06/13 00:48:12;;;;;;;7.13;2.10;;;;;;;;;;4995496;28;20080;-66
2022/06/13 00:50:46;;;;;;;7.20;2.63;;;;;;;;;;4988611;28;20027;-69
2022/06/13 00:53:35;;;;;;;6.75;1.90;;;;;;;;;;4976455;28;20039;-67
2022/06/13 00:56:11;;;;;;;6.70;2.33;;;;;;;;;;4976232;28;20084;-68
2022/06/13 00:58:40;;;;;;;7.80;2.75;;;;;;;;;;4976366;28;20035;-69
2022/06/13 01:01:06;;;;;;;7.47;2.22;;;;;;;;;;4976585;28;20027;-68
2022/06/13 01:03:33;;;;;;;8.88;2.17;;;;;;;;;;4976316;28;20358;-69
2022/06/13 01:06:01;;;;;;;6.07;2.13;;;;;;;;;;4976140;28;20074;-69
2022/06/13 01:08:31;;;;;;;6.72;1.95;;;;;;;;;;4976289;28;20037;-70
2022/06/13 01:11:17;;;;;;;10.98;2.53;;;;;;;;;;4975956;28;20119;-66
2022/06/13 01:13:50;;;;;;;8.95;2.58;;;;;;;;;;4975417;28;20038;-68
2022/06/13 01:16:21;;;;;;;8.05;2.20;;;;;;;;;;4977491;28;20047;-69
2022/06/13 01:19:05;;;;;;;7.43;2.10;;;;;;;;;;4977516;28;20042;-68
2022/06/13 01:21:52;;;;;;;8.82;2.22;;;;;;;;;;4975215;28;20046;-69
2022/06/13 01:24:55;;;;;;;5.95;2.15;;;;;;;;;;4973122;28;20058;-70
2022/06/13 01:27:42;;;;;;;9.48;2.17;;;;;;;;;;4965285;28;20023;-66
2022/06/13 01:30:10;;;;;;;11.27;2.65;;;;;;;;;;4965837;28;20038;-69
2022/06/13 01:33:01;;;;;;;8.27;2.22;;;;;;;;;;4964457;28;20027;-68
2022/06/13 01:35:45;;;;;;;9.52;2.80;;;;;;;;;;4965639;28;20495;-68
2022/06/13 01:38:54;;;;;;;8.68;2.25;;;;;;;;;;4965547;28;20038;-69
2022/06/13 01:41:50;;;;;;;5.88;2.40;;;;;;;;;;4964894;28;20066;-69
2022/06/13 01:44:28;;;;;;;8.52;2.08;;;;;;;;;;4963240;28;20020;-68
2022/06/13 01:47:05;;;;;;;6.03;1.90;;;;;;;;;;4956231;28;20020;-67
2022/06/13 01:49:39;;;;;;;6.50;2.22;;;;;;;;;;4956304;28;20032;-68
2022/06/13 01:52:21;;;;;;;6.25;2.00;;;;;;;;;;4956178;28;20500;-69
2022/06/13 01:55:16;;;;;;;7.38;2.20;;;;;;;;;;4955901;28;20114;-69
2022/06/13 01:57:50;;;;;;;8.65;3.20;;;;;;;;;;4952038;28;20122;-68
2022/06/13 02:00:30;;;;;;;8.25;2.60;;;;;;;;;;4955196;28;20031;-69
2022/06/13 02:03:15;;;;;;;7.03;2.57;;;;;;;;;;4955942;28;20397;-67
2022/06/13 02:06:03;;;;;;;6.72;2.08;;;;;;;;;;4955923;28;20030;-68
2022/06/13 02:08:44;;;;;;;7.95;2.35;;;;;;;;;;4955688;28;20493;-65
2022/06/13 02:11:34;;;;;;;11.18;2.13;;;;;;;;;;4955752;28;20058;-69
2022/06/13 02:14:08;;;;;;;;;;;;;;;;;;4956138;28;20418;-65
2022/06/13 02:16:40;;;;;;;6.35;2.65;;;;;;;;;;4956238;28;20126;-69
2022/06/13 02:19:18;;;;;;;6.97;2.10;;;;;;;;;;4973657;28;20035;-69
2022/06/13 02:21:52;;;;;;;7.70;2.47;;;;;;;;;;4975006;28;20031;-66
2022/06/13 02:24:23;;;;;;;5.68;2.22;;;;;;;;;;4974561;28;20038;-69
2022/06/13 02:26:51;;;;;;;12.65;2.55;;;;;;;;;;4974677;28;20042;-68
2022/06/13 02:29:21;;;;;;;6.93;2.90;;;;;;;;;;4974623;28;20105;-68
2022/06/13 02:31:51;;;;;;;7.65;2.80;;;;;;;;;;4974796;28;20034;-68
2022/06/13 02:34:25;;;;;;;;;;;;;;;;;;4975141;28;20027;-67
2022/06/13 02:37:09;;;;;;;4.72;1.90;;;;;;;;;;4974383;28;19937;-67
2022/06/13 02:39:52;;;;;;;6.65;2.22;;;;;;;;;;4974695;28;20432;-65
2022/06/13 02:42:30;;;;;;;7.75;2.08;;;;;;;;;;4974617;28;20054;-67
2022/06/13 02:45:20;;;;;;;6.05;1.90;;;;;;;;;;4974693;28;20085;-68
2022/06/13 02:48:11;;;;;;;5.22;2.08;;;;;;;;;;4974506;28;20496;-68
2022/06/13 02:50:54;;;;;;;7.32;2.08;;;;;;;;;;4973317;28;20070;-68
2022/06/13 02:53:24;;;;;;;6.63;2.75;;;;;;;;;;4974128;28;20023;-66
2022/06/13 02:56:02;;;;;;;6.00;2.38;;;;;;;;;;4974294;28;20026;-66
2022/06/13 02:58:41;;;;;;;5.70;2.20;;;;;;;;;;4974345;28;20469;-68
2022/06/13 03:01:16;;;;;;;6.67;2.13;;;;;;;;;;4974495;28;20023;-65
2022/06/13 03:03:57;;;;;;;5.18;2.10;;;;;;;;;;4974306;28;20054;-65
2022/06/13 03:06:41;;;;;;;8.80;2.67;;;;;;;;;;4974107;28;20023;-68
2022/06/13 03:09:12;;;;;;;8.07;2.45;;;;;;;;;;4974215;28;20078;-66
2022/06/13 03:12:05;;;;;;;7.18;2.30;;;;;;;;;;4974051;28;20035;-67
2022/06/13 03:14:42;;;;;;;7.13;2.42;;;;;;;;;;4974221;28;20035;-65
2022/06/13 03:17:28;;;;;;;6.05;2.47;;;;;;;;;;4979075;28;20055;-66
2022/06/13 03:20:02;;;;;;;6.22;2.00;;;;;;;;;;4993604;28;20026;-66
2022/06/13 03:22:45;;;;;;;7.97;2.33;;;;;;;;;;4993251;28;20026;-68
2022/06/13 03:25:17;;;;;;;5.63;2.17;;;;;;;;;;4993464;28;20109;-68
2022/06/13 03:27:49;;;;;;;7.63;2.40;;;;;;;;;;4992196;28;20438;-69
2022/06/13 03:30:20;;;;;;;6.82;2.30;;;;;;;;;;4991975;28;20387;-66
2022/06/13 03:35:42;;;;;;;7.38;2.10;;;;;;;;;;4993364;28;20101;-66
2022/06/13 03:38:15;;;;;;;6.05;2.00;;;;;;;;;;4993248;28;20037;-66
2022/06/13 03:40:47;;;;;;;9.23;2.38;;;;;;;;;;4993233;28;20085;-66
2022/06/13 03:43:20;;;;;;;7.43;2.60;;;;;;;;;;4993266;28;20030;-67
2022/06/13 03:45:54;;;;;;;7.20;2.50;;;;;;;;;;4993240;28;20034;-66
2022/06/13 03:48:26;;;;;;;7.72;2.55;;;;;;;;;;4993219;28;20022;-66
2022/06/13 03:51:16;;;;;;;9.05;2.10;;;;;;;;;;4992888;28;20038;-69
2022/06/13 03:53:46;;;;;;;6.45;2.08;;;;;;;;;;4993237;28;20372;-69
2022/06/13 03:56:17;;;;;;;;;;;;;;;;;;4993438;28;20034;-66
2022/06/13 03:58:52;;;;;;;6.50;2.78;;;;;;;;;;4992896;28;20000;-69
2022/06/13 04:01:25;;;;;;;10.90;2.42;;;;;;;;;;4993197;28;20037;-69
2022/06/13 04:03:51;;;;;;;4.93;1.98;;;;;;;;;;4992942;28;20101;-66
2022/06/13 04:06:38;;;;;;;6.75;2.10;;;;;;;;;;4992996;28;20061;-69
2022/06/13 04:09:14;;;;;;;7.82;2.58;;;;;;;;;;4993104;28;20049;-69
2022/06/13 04:12:17;;;;;;;7.70;2.78;;;;;;;;;;4993098;28;20491;-69
2022/06/13 04:15:07;;;;;;;5.13;2.58;;;;;;;;;;4992962;28;20391;-68
2022/06/13 04:17:51;;;;;;;7.72;2.22;;;;;;;;;;4992517;28;20054;-69
2022/06/13 04:20:45;;;;;;;8.32;2.28;;;;;;;;;;4992696;28;20037;-66
2022/06/13 04:23:30;;;;;;;6.53;2.20;;;;;;;;;;4993187;28;20038;-67
2022/06/13 04:26:23;;;;;;;8.10;2.65;;;;;;;;;;4996460;28;20502;-67
2022/06/13 04:29:11;;;;;;;9.48;3.20;;;;;;;;;;4996416;28;20030;-67
2022/06/13 04:31:37;;;;;;;9.18;2.63;;;;;;;;;;4996454;28;20018;-67
2022/06/13 04:34:13;;;;;;;8.05;2.50;;;;;;;;;;4996179;28;20032;-66
2022/06/13 04:36:39;;;;;;;8.32;2.40;;;;;;;;;;4996396;28;20202;-69
2022/06/13 04:39:08;;;;;;;9.32;2.40;;;;;;;;;;4996196;28;20472;-67
2022/06/13 04:41:37;;;;;;;10.43;2.88;;;;;;;;;;4996250;28;20053;-66
2022/06/13 04:44:05;;;;;;;13.15;2.90;;;;;;;;;;4996229;28;20482;-69
2022/06/13 04:46:33;;;;;;;9.20;2.50;;;;;;;;;;4996049;28;20027;-67
2022/06/13 04:49:05;;;;;;;6.82;2.58;;;;;;;;;;4995721;28;20419;-67
2022/06/13 04:51:36;;;;;;;7.53;2.40;;;;;;;;;;4996029;28;20034;-66
2022/06/13 04:54:06;;;;;;;7.53;2.10;;;;;;;;;;4995924;28;20034;-66
2022/06/13 04:56:33;;;;;;;12.95;3.60;;;;;;;;;;4995927;28;20022;-66
2022/06/13 04:59:00;;;;;;;6.13;2.10;;;;;;;;;;4995854;28;20041;-68
2022/06/13 05:01:33;;;;;;;5.88;2.15;;;;;;;;;;4995998;28;20547;-69
2022/06/13 05:04:02;;;;;;;13.02;2.88;;;;;;;;;;4995562;28;20042;-69
2022/06/13 05:06:40;;;;;;;10.38;2.58;;;;;;;;;;4995760;28;20085;-69
2022/06/13 05:09:35;;;;;;;10.27;2.58;;;;;;;;;;4994047;28;20076;-69
2022/06/13 05:12:10;;;;;;;8.88;2.90;;;;;;;;;;4985677;28;20483;-69
2022/06/13 05:14:50;;;;;;;8.30;2.70;;;;;;;;;;4995723;28;20471;-69
2022/06/13 05:17:58;;;;;;;11.32;3.17;;;;;;;;;;4994714;28;20042;-69
2022/06/13 05:20:48;;;;;;;11.18;3.13;;;;;;;;;;4995411;28;20054;-69
2022/06/13 05:23:28;;;;;;;10.07;2.75;;;;;;;;;;4995465;28;20034;-68
2022/06/13 05:26:00;;;;;;;9.82;2.83;;;;;;;;;;4995364;28;20392;-70
2022/06/13 05:28:29;;;;;;;9.02;2.72;;;;;;;;;;4995032;28;20041;-69
2022/06/13 05:30:59;;;;;;;7.65;2.40;;;;;;;;;;4995104;28;20460;-69
2022/06/13 05:33:29;;;;;;;10.98;2.75;;;;;;;;;;4995196;28;20037;-69
2022/06/13 05:35:57;;;;;;;7.75;2.63;;;;;;;;;;4995130;28;20054;-69
2022/06/13 05:38:36;;;;;;;9.02;2.08;;;;;;;;;;4994939;28;20525;-69
2022/06/13 05:41:02;;;;;;;9.80;2.57;;;;;;;;;;4994859;28;20154;-68
2022/06/13 05:43:28;;;;;;;10.05;2.50;;;;;;;;;;4994983;28;20109;-69
2022/06/13 05:45:54;;;;;;;10.73;2.75;;;;;;;;;;4993438;28;20027;-69
2022/06/13 05:48:22;;;;;;;7.72;2.47;;;;;;;;;;4995020;28;20014;-69
2022/06/13 05:50:47;;;;;;;11.35;2.10;;;;;;;;;;4994892;28;20030;-70
2022/06/13 05:53:16;;;;;;;8.35;2.28;;;;;;;;;;4994783;28;20022;-69
2022/06/13 05:55:43;;;;;;;15.43;3.08;;;;;;;;;;4994784;28;20027;-69
2022/06/13 05:58:13;;;;;;;12.95;2.50;;;;;;;;;;4994646;28;20173;-69
2022/06/13 06:00:45;;;;;;;13.27;3.03;;;;;;;;;;4994492;28;20027;-69
2022/06/13 06:03:10;;;;;;;9.25;2.13;;;;;;;;;;4994689;28;20496;-69
2022/06/13 06:05:39;;;;;;;9.52;2.72;;;;;;;;;;4994728;28;20027;-69
2022/06/13 06:08:05;;;;;;;12.70;2.50;;;;;;;;;;4994543;28;20488;-70
2022/06/13 06:10:37;;;;;;;7.88;2.10;;;;;;;;;;4994827;28;20046;-68
2022/06/13 06:13:03;;;;;;;9.02;1.95;;;;;;;;;;4994406;28;20030;-69
2022/06/13 06:15:29;;;;;;;8.35;1.90;;;;;;;;;;4994304;28;20081;-69
2022/06/13 06:17:55;;;;;;;9.18;2.88;;;;;;;;;;4992738;28;20050;-68
2022/06/13 06:20:22;;;;;;;8.63;2.08;;;;;;;;;;4994490;28;20031;-67
2022/06/13 06:22:48;;;;;;;8.82;1.83;;;;;;;;;;4994371;28;20078;-72
2022/06/13 06:25:14;;;;;;;9.45;2.13;;;;;;;;;;4994055;28;20451;-71
2022/06/13 06:27:40;;;;;;;12.23;2.50;;;;;;;;;;4994058;28;20484;-72
2022/06/13 06:30:07;;;;;;;7.00;1.83;;;;;;;;;;4993888;28;20034;-71
2022/06/13 06:32:32;;;;;;;5.05;2.10;;;;;;;;;;4994207;28;20068;-73
2022/06/13 06:34:58;;;;;;;9.10;2.35;;;;;;;;;;4994013;28;20019;-72
2022/06/13 06:37:23;;;;;;;6.25;1.90;;;;;;;;;;4993916;28;20034;-69
2022/06/13 06:39:49;;;;;;;8.27;1.92;;;;;;;;;;4994036;28;20037;-68
2022/06/13 06:42:15;;;;;;;11.27;1.92;;;;;;;;;;4993844;28;20060;-69
2022/06/13 06:44:41;;;;;;;4.65;1.67;;;;;;;;;;4993658;28;20030;-69
2022/06/13 06:47:06;;;;;;;9.10;1.98;;;;;;;;;;4993420;28;20038;-69
2022/06/13 06:49:36;;;;;;;9.40;1.83;;;;;;;;;;4993705;28;20022;-69
2022/06/13 06:52:02;;;;;;;6.18;1.73;;;;;;;;;;4993873;28;20061;-68
2022/06/13 06:59:56;;;;;;;5.10;1.80;;;;;;;;;;4993402;28;20061;-68
2022/06/13 07:02:29;;;;;;;7.70;1.98;;;;;;;;;;4966803;28;20472;-67
2022/06/13 07:05:02;;;;;;;8.65;1.77;;;;;;;;;;4966627;28;20031;-66
2022/06/13 07:07:29;;;;;;;7.95;1.70;;;;;;;;;;4967230;28;20388;-66
2022/06/13 07:09:54;;;;;;;5.93;1.95;;;;;;;;;;4976738;28;20022;-68
2022/06/13 07:12:20;;;;;;;12.60;2.33;;;;;;;;;;4971884;28;20423;-68
2022/06/13 07:14:46;;;;;;;6.60;1.70;;;;;;;;;;4973731;28;20027;-68
2022/06/13 07:17:13;;;;;;;8.82;1.88;;;;;;;;;;4972941;28;20051;-67
2022/06/13 07:19:39;;;;;;;4.13;1.52;;;;;;;;;;4968584;28;20126;-65
2022/06/13 07:22:07;;;;;;;7.28;1.88;;;;;;;;;;4963660;28;20158;-70
2022/06/13 07:24:33;;;;;;;6.75;1.75;;;;;;;;;;4962295;28;20533;-67
2022/06/13 07:26:59;;;;;;;10.20;1.60;;;;;;;;;;4961962;28;20023;-67
2022/06/13 07:29:25;;;;;;;5.22;1.80;;;;;;;;;;4963424;28;20018;-67
2022/06/13 07:32:01;;;;;;;9.18;1.88;;;;;;;;;;4961595;28;20466;-68
2022/06/13 07:34:30;;;;;;;7.40;2.00;;;;;;;;;;4961726;28;20039;-68
2022/06/13 07:36:58;;;;;;;5.25;1.60;;;;;;;;;;4962649;28;20055;-67
2022/06/13 07:39:24;;;;;;;6.50;2.38;;;;;;;;;;4963381;28;20556;-67
2022/06/13 07:41:50;;;;;;;5.88;1.50;;;;;;;;;;4961928;28;20114;-67
2022/06/13 07:44:20;;;;;;;9.25;1.80;;;;;;;;;;4962715;28;20022;-69
2022/06/13 07:46:46;;;;;;;5.35;1.92;;;;;;;;;;4963526;28;20031;-68
2022/06/13 07:49:13;;;;;;;4.82;2.08;;;;;;;;;;4961397;28;20056;-68
2022/06/13 07:51:38;;;;;;;9.32;1.77;;;;;;;;;;4961705;28;20050;-68
2022/06/13 07:54:04;;;;;;;4.82;1.55;;;;;;;;;;4962734;28;20058;-67
2022/06/13 07:56:31;;;;;;;4.47;1.75;;;;;;;;;;4963232;28;20101;-68
2022/06/13 07:58:58;;;;;;;4.53;1.70;;;;;;;;;;4965597;28;20023;-68
2022/06/13 08:01:25;;;;;;;4.50;1.92;;;;;;;;;;4967912;28;20058;-66
2022/06/13 08:03:52;;;;;;;7.07;1.83;;;;;;;;;;4967085;28;20027;-68
2022/06/13 08:06:18;;;;;;;5.03;2.00;;;;;;;;;;4966046;28;20027;-68
2022/06/13 08:08:45;;;;;;;7.80;2.05;;;;;;;;;;4967980;28;20019;-67
2022/06/13 08:11:14;;;;;;;7.60;2.00;;;;;;;;;;4967820;28;20041;-68
2022/06/13 08:13:40;;;;;;;6.70;1.70;;;;;;;;;;4966522;28;20015;-68
2022/06/13 08:16:06;;;;;;;7.93;1.67;;;;;;;;;;4968587;28;20050;-67
2022/06/13 08:18:32;;;;;;;6.78;2.00;;;;;;;;;;4977085;28;20035;-68
2022/06/13 08:20:57;;;;;;;6.20;1.70;;;;;;;;;;4977227;28;20026;-66
2022/06/13 08:23:23;;;;;;;10.18;1.83;;;;;;;;;;4976915;28;20031;-68
2022/06/13 08:25:50;;;;;;;11.80;2.10;;;;;;;;;;4976789;28;20034;-68
2022/06/13 08:28:16;;;;;;;7.68;2.25;;;;;;;;;;4977199;28;20050;-67
2022/06/13 08:30:48;;;;;;;8.05;1.90;;;;;;;;;;4977137;28;20034;-66
2022/06/13 08:33:14;;;;;;;8.80;1.80;;;;;;;;;;4976064;28;20026;-67
2022/06/13 08:35:40;;;;;;;5.10;1.60;;;;;;;;;;4975642;28;20037;-68
2022/06/13 08:38:06;;;;;;;6.85;1.42;;;;;;;;;;4976889;28;20027;-66
2022/06/13 08:40:58;;;;;;;8.35;1.88;;;;;;;;;;4976321;28;20029;-69
2022/06/13 08:43:56;;;;;;;8.15;1.60;;;;;;;;;;4976723;28;20046;-66
2022/06/13 08:46:22;;;;;;;6.10;1.67;;;;;;;;;;4974530;28;20062;-69
2022/06/13 08:48:54;;;;;;;8.40;1.80;;;;;;;;;;4976444;28;20472;-69
2022/06/13 08:51:33;;;;;;;7.32;1.85;;;;;;;;;;4976670;28;20034;-69
2022/06/13 08:54:02;;;;;;;4.63;1.73;;;;;;;;;;4969423;28;20023;-69
2022/06/13 08:56:30;;;;;;;7.85;2.70;;;;;;;;;;4976627;28;20114;-69
2022/06/13 08:59:26;;;;;;;8.35;1.52;;;;;;;;;;4976387;28;20034;-69
2022/06/13 09:02:16;;;;;;;9.05;1.65;;;;;;;;;;4975473;28;20488;-68
2022/06/13 09:04:50;;;;;;;9.57;1.90;;;;;;;;;;4976060;28;20093;-68
2022/06/13 09:07:27;;;;;;;8.13;1.77;;;;;;;;;;4976328;28;20031;-68
2022/06/13 09:10:07;;;;;;;12.05;2.53;;;;;;;;;;4975684;28;20019;-69
2022/06/13 09:12:58;;;;;;;11.27;2.58;;;;;;;;;;4976229;28;20026;-68
2022/06/13 09:15:44;;;;;;;21.30;4.32;;;;;;;;;;4971167;28;20497;-69
2022/06/13 09:18:18;;;;;;;10.63;3.03;;;;;;;;;;4989238;28;20100;-69
2022/06/13 09:20:53;;;;;;;11.82;2.70;;;;;;;;;;4995661;28;20031;-68
2022/06/13 09:23:37;;;;;;;16.42;2.83;;;;;;;;;;4995188;28;20019;-68
2022/06/13 09:26:24;;;;;;;13.95;2.78;;;;;;;;;;4995317;28;20031;-68
2022/06/13 09:28:59;;;;;;;16.17;3.53;;;;;;;;;;4995259;28;20027;-67
2022/06/13 09:31:34;;;;;;;19.25;3.05;;;;;;;;;;4995001;28;20088;-68
2022/06/13 09:34:12;;;;;;;6.88;2.00;;;;;;;;;;4995439;28;20022;-69
2022/06/13 09:36:57;;;;;;;9.10;2.17;;;;;;;;;;4993993;28;20394;-68
2022/06/13 09:39:23;;;;;;;9.88;2.15;;;;;;;;;;4994915;28;20041;-69
2022/06/13 09:42:01;;;;;;;14.45;2.53;;;;;;;;;;4995321;28;20419;-67
2022/06/13 09:44:31;;;;;;;6.88;2.10;;;;;;;;;;4995147;28;20030;-68
2022/06/13 09:46:59;;;;;;;8.70;2.25;;;;;;;;;;4983948;28;20035;-68
2022/06/13 09:49:36;;;;;;;10.05;2.35;;;;;;;;;;4975492;28;20443;-69
2022/06/13 09:52:21;;;;;;;7.93;2.40;;;;;;;;;;4975360;28;20042;-68
2022/06/13 09:55:14;;;;;;;6.57;1.80;;;;;;;;;;4974160;28;20116;-68
2022/06/13 09:57:51;;;;;;;6.28;2.28;;;;;;;;;;4975445;28;20031;-70
2022/06/13 10:00:38;;;;;;;7.40;1.75;;;;;;;;;;4975706;28;20070;-69
2022/06/13 10:03:41;;;;;;;9.98;1.88;;;;;;;;;;4975343;28;20031;-69
2022/06/13 10:06:15;;;;;;;4.68;1.30;;;;;;;;;;4975319;28;20042;-68
2022/06/13 10:09:02;;;;;;;8.52;2.00;;;;;;;;;;4974913;28;20023;-68
2022/06/13 10:11:48;;;;;;;8.02;1.90;;;;;;;;;;4975079;28;20496;-69
2022/06/13 10:14:47;;;;;;;9.25;1.60;;;;;;;;;;4975264;28;20038;-69
2022/06/13 10:17:49;;;;;;;9.82;2.30;;;;;;;;;;4980850;28;20046;-66
2022/06/13 10:20:29;;;;;;;4.00;1.60;;;;;;;;;;4986720;28;20015;-69
2022/06/13 10:23:14;;;;;;;4.60;1.52;;;;;;;;;;4974442;28;20114;-69
2022/06/13 10:25:51;;;;;;;6.40;1.50;;;;;;;;;;4974988;28;20030;-70
2022/06/13 10:28:41;;;;;;;6.53;1.50;;;;;;;;;;4974851;28;20042;-69
2022/06/13 10:31:33;;;;;;;7.93;1.85;;;;;;;;;;4974390;28;20038;-67
2022/06/13 10:34:06;;;;;;;6.13;1.70;;;;;;;;;;4974871;28;20023;-69
2022/06/13 10:36:39;;;;;;;8.20;2.20;;;;;;;;;;4974558;28;20019;-69
2022/06/13 10:39:13;;;;;;;7.88;1.77;;;;;;;;;;4974687;28;20361;-69
2022/06/13 10:41:45;;;;;;;10.23;1.70;;;;;;;;;;4974665;28;20081;-69
2022/06/13 10:44:14;;;;;;;8.43;1.67;;;;;;;;;;4974619;28;20031;-69
2022/06/13 10:46:46;;;;;;;3.93;1.43;;;;;;;;;;4974548;28;20059;-70
2022/06/13 10:49:47;;;;;;;5.55;1.40;;;;;;;;;;4974543;28;20738;-69
2022/06/13 10:52:16;;;;;;;5.75;1.70;;;;;;;;;;4974428;28;20054;-69
2022/06/13 10:54:56;;;;;;;8.48;1.92;;;;;;;;;;4974501;28;20073;-69
2022/06/13 10:57:29;;;;;;;5.47;1.90;;;;;;;;;;4974418;28;20023;-69
2022/06/13 11:00:17;;;;;;;7.35;1.90;;;;;;;;;;4974397;28;20041;-69
2022/06/13 11:02:44;;;;;;;6.20;1.70;;;;;;;;;;4973228;28;20023;-67
2022/06/13 11:05:11;;;;;;;8.23;1.88;;;;;;;;;;4974051;28;20030;-68
2022/06/13 11:07:46;;;;;;;7.97;1.45;;;;;;;;;;4974293;28;20039;-67
2022/06/13 11:10:28;;;;;;;7.38;1.60;;;;;;;;;;4974271;28;20054;-68
2022/06/13 11:12:55;;;;;;;7.10;1.52;;;;;;;;;;4973745;28;20027;-69
2022/06/13 11:24:45;;;;;;;3.90;1.13;;;;;;;;;;4993694;28;20026;-69
2022/06/13 11:27:41;;;;;;;5.75;1.30;;;;;;;;;;4992106;28;20113;-69
2022/06/13 11:30:26;;;;;;;3.17;1.10;;;;;;;;;;4993297;28;20034;-69
2022/06/13 11:33:04;;;;;;;8.40;1.13;;;;;;;;;;4994556;28;20376;-68
2022/06/13 11:35:49;;;;;;;5.93;1.20;;;;;;;;;;4997116;28;20034;-67
2022/06/13 11:38:36;;;;;;;2.33;0.90;;;;;;;;;;4997492;28;20034;-69
2022/06/13 11:41:22;;;;;;;3.97;1.27;;;;;;;;;;4997525;28;20029;-67
2022/06/13 11:44:01;;;;;;;5.00;1.10;;;;;;;;;;4997389;28;20484;-65
2022/06/13 11:46:26;;;;;;;4.90;1.77;;;;;;;;;;4997376;28;20084;-69
2022/06/13 11:48:52;;;;;;;4.53;1.20;;;;;;;;;;4996680;28;20393;-68
2022/06/13 11:51:28;;;;;;;4.40;1.40;;;;;;;;;;4997177;28;20030;-66
2022/06/13 11:53:57;;;;;;;5.97;1.48;;;;;;;;;;4997176;28;20053;-69
2022/06/13 11:56:33;;;;;;;4.07;1.20;;;;;;;;;;4997206;28;20025;-68
2022/06/13 11:59:04;;;;;;;5.45;1.00;;;;;;;;;;4997136;28;20027;-68
2022/06/13 12:01:32;;;;;;;5.38;1.45;;;;;;;;;;4996950;28;20042;-67
2022/06/13 12:04:12;;;;;;;3.30;1.45;;;;;;;;;;4996797;28;20053;-66
2022/06/13 12:06:43;;;;;;;10.55;1.70;;;;;;;;;;4996815;28;20476;-66
2022/06/13 12:09:23;;;;;;;2.63;1.20;;;;;;;;;;4997084;28;20030;-68
2022/06/13 12:11:58;;;;;;;4.10;1.17;;;;;;;;;;4996966;28;20048;-69
2022/06/13 12:14:29;;;;;;;3.67;1.30;;;;;;;;;;4996822;28;20030;-68
2022/06/13 12:17:15;;;;;;;5.88;1.50;;;;;;;;;;4996247;28;20146;-69
2022/06/13 12:20:21;;;;;;;5.95;1.33;;;;;;;;;;4996454;28;20041;-68
2022/06/13 12:23:01;;;;;;;7.45;1.85;;;;;;;;;;4993588;28;20045;-67
2022/06/13 12:25:35;;;;;;;7.20;1.30;;;;;;;;;;4996359;28;20061;-68
2022/06/13 12:28:13;;;;;;;4.13;1.20;;;;;;;;;;4996648;28;20038;-66
2022/06/13 12:30:38;;;;;;;8.45;1.30;;;;;;;;;;4996529;28;20033;-66
2022/06/13 12:33:10;;;;;;;2.95;1.13;;;;;;;;;;4995407;28;20460;-68
2022/06/13 12:35:59;;;;;;;4.43;1.05;;;;;;;;;;4980155;28;20046;-69
2022/06/13 12:38:56;;;;;;;6.38;1.00;;;;;;;;;;4976848;28;20023;-69
2022/06/13 12:41:37;;;;;;;7.55;1.50;;;;;;;;;;4976707;28;20565;-67
2022/06/13 12:44:20;;;;;;;7.05;0.98;;;;;;;;;;4974948;28;20109;-67
2022/06/13 12:47:12;;;;;;;5.18;1.35;;;;;;;;;;4973835;28;20023;-67
2022/06/13 12:50:16;;;;;;;4.95;1.35;;;;;;;;;;4976628;28;20027;-69
2022/06/13 12:53:03;;;;;;;5.47;1.30;;;;;;;;;;4976532;28;20106;-69
2022/06/13 12:55:38;;;;;;;3.42;1.17;;;;;;;;;;4976507;28;20027;-68
2022/06/13 12:58:39;;;;;;;10.85;1.30;;;;;;;;;;4976558;28;20023;-68
2022/06/13 13:01:19;;;;;;;4.47;1.02;;;;;;;;;;4976353;28;20085;-67
2022/06/13 13:04:09;;;;;;;5.10;1.10;;;;;;;;;;4976150;28;20027;-69
2022/06/13 13:06:50;;;;;;;4.60;1.00;;;;;;;;;;4975024;28;20030;-68
2022/06/13 13:09:34;;;;;;;5.55;1.05;;;;;;;;;;4976274;28;20090;-70
2022/06/13 13:12:11;;;;;;;2.97;1.08;;;;;;;;;;4976286;28;20484;-69
2022/06/13 13:14:55;;;;;;;3.65;0.98;;;;;;;;;;4976391;28;20038;-71
2022/06/13 13:17:56;;;;;;;7.50;1.45;;;;;;;;;;4982941;28;20042;-67
2022/06/13 13:21:20;;;;;;;5.88;1.20;;;;;;;;;;4973980;28;20181;-67
2022/06/13 13:24:11;;;;;;;6.57;1.50;;;;;;;;;;4935344;29;20036;-70
2022/06/13 13:26:53;;;;;;;4.38;1.10;;;;;;;;;;4935547;29;20523;-68
2022/06/13 13:29:23;;;;;;;5.90;1.67;;;;;;;;;;4935179;29;20155;-69
2022/06/13 13:32:07;;;;;;;8.63;1.38;;;;;;;;;;4935318;29;20126;-67
2022/06/13 13:34:51;;;;;;;4.97;1.45;;;;;;;;;;4935352;29;20039;-69
2022/06/13 13:37:37;;;;;;;7.57;1.63;;;;;;;;;;4934965;29;20043;-68
2022/06/13 13:40:34;;;;;;;7.38;1.30;;;;;;;;;;4935049;29;20036;-68
2022/06/13 13:43:07;;;;;;;5.95;1.20;;;;;;;;;;4934979;29;20039;-66
2022/06/13 13:45:53;;;;;;;7.38;1.38;;;;;;;;;;4934757;29;20437;-69
2022/06/13 13:48:29;;;;;;;6.10;1.30;;;;;;;;;;4934999;29;20555;-68
2022/06/13 13:51:25;;;;;;;11.55;1.40;;;;;;;;;;4935017;29;20409;-69
2022/06/13 13:54:12;;;;;;;3.50;1.20;;;;;;;;;;4948561;28;20053;-68
2022/06/13 13:56:55;;;;;;;3.53;1.17;;;;;;;;;;4967329;28;20070;-67
2022/06/13 13:59:30;;;;;;;4.05;1.20;;;;;;;;;;4994511;28;20037;-67
2022/06/13 14:02:28;;;;;;;3.88;1.05;;;;;;;;;;4994627;28;20053;-67
2022/06/13 14:05:12;;;;;;;6.50;1.60;;;;;;;;;;4994742;28;20062;-68
2022/06/13 14:07:55;;;;;;;4.03;1.23;;;;;;;;;;4994743;28;20084;-68
2022/06/13 14:10:25;;;;;;;4.47;0.93;;;;;;;;;;4994761;28;20113;-69
2022/06/13 14:13:17;;;;;;;3.78;1.10;;;;;;;;;;4994492;28;20031;-69
2022/06/13 14:15:48;;;;;;;6.60;1.58;;;;;;;;;;4994463;28;20034;-69
2022/06/13 14:18:17;;;;;;;6.30;1.10;;;;;;;;;;4994288;28;20042;-68
2022/06/13 14:20:43;;;;;;;6.20;1.10;;;;;;;;;;4986662;28;20530;-68
2022/06/13 14:23:09;;;;;;;7.13;1.33;;;;;;;;;;4974942;28;20027;-68
2022/06/13 14:25:43;;;;;;;5.95;1.60;;;;;;;;;;4974965;28;20031;-68
2022/06/13 14:28:14;;;;;;;4.30;1.27;;;;;;;;;;4974028;28;20040;-68
2022/06/13 14:31:06;;;;;;;6.20;1.10;;;;;;;;;;4975060;28;20476;-68
2022/06/13 14:36:48;;;;;;;3.53;1.20;;;;;;;;;;4973784;28;20075;-68
2022/06/13 14:39:34;;;;;;;3.80;0.90;;;;;;;;;;4974471;28;20027;-69
2022/06/13 14:42:25;;;;;;;6.20;0.90;;;;;;;;;;4967139;28;20484;-69
2022/06/13 14:45:24;;;;;;;2.70;0.98;;;;;;;;;;4974534;28;20388;-68
2022/06/13 14:48:20;;;;;;;2.55;0.70;;;;;;;;;;4974684;28;20019;-68
2022/06/13 14:51:06;;;;;;;2.55;1.20;;;;;;;;;;4974594;28;20028;-68
2022/06/13 14:53:31;;;;;;;4.00;1.27;;;;;;;;;;4967252;28;20408;-69
2022/06/13 14:56:06;;;;;;;5.13;1.45;;;;;;;;;;4974455;28;20022;-69
2022/06/13 14:58:50;;;;;;;6.95;1.05;;;;;;;;;;4974095;28;20023;-68
2022/06/13 15:01:22;;;;;;;2.22;0.85;;;;;;;;;;4974273;28;20492;-68
2022/06/13 15:06:26;;;;;;;1.35;0.50;;;;;;;;;;4973902;28;20055;-69
2022/06/13 15:09:12;;;;;;;1.48;0.70;;;;;;;;;;4972266;28;20023;-69
2022/06/13 15:11:42;;;;;;;0.98;0.63;;;;;;;;;;4933179;29;20040;-69
2022/06/13 15:14:17;;;;;;;6.75;0.85;;;;;;;;;;4933678;29;20526;-68
2022/06/13 15:16:45;;;;;;;2.80;0.70;;;;;;;;;;4933352;29;20422;-69
2022/06/13 15:19:11;;;;;;;2.38;1.00;;;;;;;;;;4933636;29;20553;-69
2022/06/13 15:21:47;;;;;;;5.30;0.80;;;;;;;;;;4933581;29;20118;-69
2022/06/13 15:24:17;;;;;;;5.50;0.80;;;;;;;;;;4933733;29;20028;-69
2022/06/13 15:26:46;;;;;;;3.38;0.65;;;;;;;;;;4933342;29;20040;-69
2022/06/13 15:29:23;;;;;;;3.85;0.70;;;;;;;;;;4933349;29;20040;-69
2022/06/13 15:31:53;;;;;;;1.83;0.73;;;;;;;;;;4933466;29;20039;-69
2022/06/13 15:34:24;;;;;;;1.23;0.80;;;;;;;;;;4933520;29;20466;-69
2022/06/13 15:37:02;;;;;;;1.55;0.70;;;;;;;;;;4933235;29;20051;-69
2022/06/13 15:39:32;;;;;;;2.05;1.20;;;;;;;;;;4933116;29;20046;-69
2022/06/13 15:42:02;;;;;;;2.25;0.70;;;;;;;;;;4933258;29;20035;-69
2022/06/13 15:44:31;;;;;;;1.60;0.73;;;;;;;;;;4933422;29;20031;-69
2022/06/13 15:46:58;;;;;;;3.28;0.70;;;;;;;;;;4933270;29;20067;-68
2022/06/13 15:49:27;;;;;;;5.05;1.05;;;;;;;;;;4949801;29;20039;-69
2022/06/13 15:52:13;;;;;;;5.13;0.70;;;;;;;;;;4954609;28;20086;-68
2022/06/13 15:54:42;;;;;;;1.38;0.60;;;;;;;;;;4954226;28;20154;-69
2022/06/13 15:57:19;;;;;;;2.45;0.70;;;;;;;;;;4954558;28;20024;-68
2022/06/13 15:59:58;;;;;;;1.20;0.60;;;;;;;;;;4954515;28;20118;-68